Time;durP1;ratioP1;P1;durP2;ratioP2;P2;SDS_P1;SDS_P2;PMS_P1;PMS_P2;Temp;Humidity;BMP_temperature;BMP_pressure;BME280_temperature;BME280_humidity;BME280_pressure;Samples;Min_cycle;Max_cycle;Signal;HPM_P1;HPM_P2
2021/06/20 00:01:16;;;;;;;6.13;0.93;;;;;;;;;;4780408;28;20289;-81
2021/06/20 00:03:39;;;;;;;3.67;0.63;;;18.40;99.90;;;;;;4799042;28;20273;-81
2021/06/20 00:06:07;;;;;;;12.33;1.83;;;18.80;1.00;;;;;;4799512;28;20200;-82
2021/06/20 00:08:29;;;;;;;5.60;0.90;;;19.00;11.60;;;;;;4799522;28;20617;-84
2021/06/20 00:10:53;;;;;;;5.00;0.87;;;18.80;99.90;;;;;;4799106;28;20257;-82
2021/06/20 00:13:17;;;;;;;4.83;0.77;;;18.90;1.00;;;;;;4799255;28;20239;-80
2021/06/20 00:15:40;;;;;;;4.87;0.80;;;18.80;1.00;;;;;;4782314;28;20318;-80
2021/06/20 00:18:04;;;;;;;12.83;2.13;;;18.90;99.90;;;;;;4799791;28;20193;-77
2021/06/20 00:20:31;;;;;;;6.20;1.03;;;18.90;99.90;;;;;;4799996;28;20264;-82
2021/06/20 00:22:54;;;;;;;4.97;0.90;;;;;;;;;;4800363;28;20261;-80
2021/06/20 00:25:17;;;;;;;3.73;0.70;;;;;;;;;;4799605;28;20182;-80
2021/06/20 00:27:40;;;;;;;8.13;1.30;;;;;;;;;;4798798;28;20700;-82
2021/06/20 00:30:06;;;;;;;8.90;1.43;;;18.80;1.00;;;;;;4788260;28;20256;-73
2021/06/20 00:32:29;;;;;;;4.37;0.70;;;18.60;1.00;;;;;;4780053;29;20329;-81
2021/06/20 00:34:53;;;;;;;4.43;0.80;;;;;;;;;;4780627;28;20198;-79
2021/06/20 00:37:16;;;;;;;3.67;0.70;;;;;;;;;;4780069;29;20218;-79
2021/06/20 00:39:38;;;;;;;8.57;1.50;;;;;;;;;;4780732;28;20198;-79
2021/06/20 00:42:01;;;;;;;11.17;1.77;;;18.50;18.90;;;;;;4795467;28;20614;-81
2021/06/20 00:44:24;;;;;;;6.33;1.07;;;;;;;;;;4779604;29;20613;-79
2021/06/20 00:46:48;;;;;;;6.63;1.00;;;18.50;99.90;;;;;;4781195;28;20250;-81
2021/06/20 00:49:10;;;;;;;10.27;1.67;;;18.20;99.90;;;;;;4779749;29;20209;-81
2021/06/20 00:51:33;;;;;;;8.77;1.37;;;;;;;;;;4780295;28;20245;-76
2021/06/20 00:53:56;;;;;;;4.57;0.80;;;;;;;;;;4780890;28;20222;-74
2021/06/20 00:56:19;;;;;;;4.63;0.83;;;18.60;99.90;;;;;;4780574;28;20195;-81
2021/06/20 00:58:44;;;;;;;5.27;1.00;;;18.60;99.90;;;;;;4770916;28;20197;-82
2021/06/20 01:01:07;;;;;;;15.03;2.40;;;17.90;99.90;;;;;;4793633;28;20206;-81
2021/06/20 01:03:31;;;;;;;5.30;0.93;;;18.40;1.00;;;;;;4779442;29;20197;-82
2021/06/20 01:05:54;;;;;;;5.30;1.00;;;;;;;;;;4780381;28;20186;-81
2021/06/20 01:08:17;;;;;;;3.07;0.60;;;18.20;99.90;;;;;;4780995;28;20212;-79
2021/06/20 01:10:40;;;;;;;4.80;0.87;;;18.30;1.00;;;;;;4783760;28;20187;-82
2021/06/20 01:13:04;;;;;;;7.07;1.13;;;18.00;99.90;;;;;;4783622;28;20217;-74
2021/06/20 01:15:27;;;;;;;5.10;0.93;;;;;;;;;;4766691;29;20199;-82
2021/06/20 01:17:50;;;;;;;6.23;1.10;;;;;;;;;;4799424;28;20204;-81
2021/06/20 01:20:17;;;;;;;9.23;1.57;;;18.10;99.90;;;;;;4784464;28;20194;-81
2021/06/20 01:22:43;;;;;;;10.10;1.67;;;18.90;1.00;;;;;;4784365;28;20287;-81
2021/06/20 01:25:08;;;;;;;9.90;1.53;;;18.50;99.90;;;;;;4783129;28;20603;-81
2021/06/20 01:27:33;;;;;;;3.07;0.57;;;18.30;1.00;;;;;;4799621;28;20188;-81
2021/06/20 01:29:56;;;;;;;3.80;0.70;;;;;;;;;;4783044;29;20212;-79
2021/06/20 01:32:19;;;;;;;7.23;1.07;;;18.20;1.00;;;;;;4799133;28;20206;-77
2021/06/20 01:34:42;;;;;;;16.13;2.40;;;;;;;;;;4782851;28;20249;-81
2021/06/20 01:37:08;;;;;;;13.93;1.97;;;18.30;99.90;;;;;;4784121;28;20238;-82
2021/06/20 01:39:32;;;;;;;5.30;0.90;;;18.20;1.00;;;;;;4783167;29;20237;-82
2021/06/20 01:41:55;;;;;;;6.63;1.03;;;18.40;76.70;;;;;;4784145;28;20693;-82
2021/06/20 01:44:18;;;;;;;13.93;2.13;;;;;;;;;;4784941;28;20186;-75
2021/06/20 01:46:49;;;;;;;4.53;0.73;;;18.20;99.90;;;;;;4800269;28;20208;-82
2021/06/20 01:49:11;;;;;;;9.40;1.43;;;;;;;;;;4802725;28;20181;-83
2021/06/20 01:51:34;;;;;;;9.50;1.47;;;;;;;;;;4802709;28;20189;-82
2021/06/20 01:53:58;;;;;;;4.70;0.80;;;18.20;99.90;;;;;;4801249;28;20232;-82
2021/06/20 01:56:22;;;;;;;7.30;1.17;;;18.50;1.00;;;;;;4801071;28;20208;-80
2021/06/20 01:58:45;;;;;;;6.50;1.00;;;18.40;1.00;;;;;;4802719;28;20188;-82
2021/06/20 02:01:08;;;;;;;10.93;1.70;;;18.40;1.00;;;;;;4800439;28;20196;-81
2021/06/20 02:03:31;;;;;;;6.50;1.03;;;;;;;;;;4800410;28;20228;-80
2021/06/20 02:05:57;;;;;;;8.00;1.27;;;18.20;1.00;;;;;;4784019;28;20258;-80
2021/06/20 02:08:20;;;;;;;4.77;0.80;;;18.40;1.00;;;;;;4800458;28;20265;-81
2021/06/20 02:10:43;;;;;;;5.80;0.87;;;;;;;;;;4801114;28;20200;-79
2021/06/20 02:13:07;;;;;;;11.70;1.73;;;18.10;1.00;;;;;;4802163;28;20274;-81
2021/06/20 02:15:30;;;;;;;6.57;1.10;;;;;;;;;;4801513;28;20243;-81
2021/06/20 02:17:53;;;;;;;6.00;1.03;;;;;;;;;;4801411;28;20193;-81
2021/06/20 02:20:18;;;;;;;8.63;1.37;;;18.30;99.90;;;;;;4800273;28;20200;-82
2021/06/20 02:22:42;;;;;;;5.50;1.00;;;18.00;1.00;;;;;;4802064;28;20246;-82
2021/06/20 02:25:05;;;;;;;12.80;1.90;;;18.10;1.00;;;;;;4801396;28;20232;-81
2021/06/20 02:27:28;;;;;;;6.47;1.07;;;;;;;;;;4784624;28;20228;-81
2021/06/20 02:29:55;;;;;;;7.07;1.17;;;18.00;1.00;;;;;;4801357;28;20189;-83
2021/06/20 02:32:18;;;;;;;4.87;0.73;;;18.00;1.00;;;;;;4802049;28;20200;-77
2021/06/20 02:34:42;;;;;;;22.13;3.47;;;18.00;1.00;;;;;;4801237;28;20284;-84
2021/06/20 02:37:06;;;;;;;10.70;1.63;;;18.00;1.00;;;;;;4800383;28;20303;-81
2021/06/20 02:39:29;;;;;;;6.33;1.03;;;;;;;;;;4789578;28;20197;-80
2021/06/20 02:41:51;;;;;;;5.63;0.93;;;17.90;1.00;;;;;;4783017;28;20559;-81
2021/06/20 02:44:14;;;;;;;10.33;1.70;;;;;;;;;;4782965;28;20208;-82
2021/06/20 02:46:39;;;;;;;4.17;0.70;;;18.10;1.00;;;;;;4797103;28;20200;-81
2021/06/20 02:49:02;;;;;;;11.20;1.73;;;;;;;;;;4781674;29;20579;-80
2021/06/20 02:51:24;;;;;;;5.40;0.97;;;18.00;99.90;;;;;;4781116;29;20193;-79
2021/06/20 02:53:47;;;;;;;6.07;1.03;;;18.00;99.90;;;;;;4782854;28;20197;-76
2021/06/20 02:56:09;;;;;;;11.90;1.97;;;17.70;1.00;;;;;;4782192;28;20247;-82
2021/06/20 02:58:32;;;;;;;7.60;1.17;;;17.40;99.90;;;;;;4788788;28;20189;-76
2021/06/20 03:00:55;;;;;;;5.57;1.00;;;;;;;;;;4798892;28;20192;-81
2021/06/20 03:03:19;;;;;;;3.90;0.77;;;17.90;1.00;;;;;;4783739;28;20232;-72
2021/06/20 03:05:42;;;;;;;6.13;1.00;;;;;;;;;;4780645;29;20205;-82
2021/06/20 03:08:04;;;;;;;8.27;1.40;;;18.30;99.90;;;;;;4782735;28;20181;-82
2021/06/20 03:10:27;;;;;;;5.20;0.90;;;;;;;;;;4782884;28;20185;-82
2021/06/20 03:12:50;;;;;;;5.03;0.87;;;;;;;;;;4781911;28;20189;-82
2021/06/20 03:15:13;;;;;;;9.30;1.60;;;18.10;99.90;;;;;;4781819;28;20253;-79
2021/06/20 03:17:36;;;;;;;4.33;0.80;;;;;;;;;;4782793;28;20288;-81
2021/06/20 03:20:00;;;;;;;5.60;1.00;;;18.00;1.00;;;;;;4782342;28;20528;-83
2021/06/20 03:22:23;;;;;;;11.47;1.87;;;;;;;;;;4780327;29;20209;-81
2021/06/20 03:24:48;;;;;;;8.90;1.53;;;18.00;1.00;;;;;;4781807;28;20216;-79
2021/06/20 03:27:11;;;;;;;9.77;1.63;;;;;;;;;;4781126;29;20253;-82
2021/06/20 03:29:33;;;;;;;5.27;1.03;;;17.90;13.00;;;;;;4782459;28;20257;-76
2021/06/20 03:31:58;;;;;;;3.80;0.73;;;18.00;1.00;;;;;;4781948;28;20190;-83
2021/06/20 03:34:22;;;;;;;5.60;0.93;;;18.00;1.00;;;;;;4780148;29;20659;-80
2021/06/20 03:36:46;;;;;;;6.03;1.03;;;18.00;1.00;;;;;;4781781;28;20271;-79
2021/06/20 03:39:09;;;;;;;9.67;1.70;;;17.50;1.00;;;;;;4796902;28;20188;-82
2021/06/20 03:41:32;;;;;;;5.07;0.90;;;17.80;99.90;;;;;;4782136;28;20235;-80
2021/06/20 03:43:55;;;;;;;9.60;1.60;;;;;;;;;;4779960;29;20825;-73
2021/06/20 03:46:18;;;;;;;2.57;0.50;;;;;;;;;;4781512;28;20185;-72
2021/06/20 03:48:41;;;;;;;5.40;0.90;;;18.10;1.00;;;;;;4796242;28;20634;-79
2021/06/20 03:51:04;;;;;;;10.13;1.70;;;;;;;;;;4800563;28;20199;-79
2021/06/20 03:53:31;;;;;;;4.53;0.83;;;18.20;1.00;;;;;;4799331;28;20210;-80
2021/06/20 03:55:54;;;;;;;5.53;0.97;;;;;;;;;;4798900;28;20425;-81
2021/06/20 03:58:17;;;;;;;3.37;0.67;;;;;;;;;;4800655;28;20243;-78
2021/06/20 04:00:39;;;;;;;53.17;8.50;;;;;;;;;;4797338;28;20648;-76
2021/06/20 04:03:05;;;;;;;9.37;1.57;;;18.10;1.00;;;;;;4782449;28;20287;-76
2021/06/20 04:05:27;;;;;;;7.30;1.20;;;;;;;;;;4797757;28;20210;-76
2021/06/20 04:07:50;;;;;;;5.90;1.07;;;;;;;;;;4798832;28;20239;-80
2021/06/20 04:10:15;;;;;;;10.07;1.70;;;18.10;1.00;;;;;;4798999;28;20286;-81
2021/06/20 04:12:59;;;;;;;3.17;0.60;;;18.70;99.90;;;;;;4800304;28;20188;-83
2021/06/20 04:15:42;;;;;;;4.80;0.90;;;;;;;;;;4798625;28;20192;-80
2021/06/20 04:18:25;;;;;;;4.93;0.90;;;18.20;1.00;;;;;;4799899;28;20206;-76
2021/06/20 04:21:07;;;;;;;7.73;1.33;;;17.90;99.90;;;;;;4800153;28;20187;-83
2021/06/20 04:23:50;;;;;;;7.60;1.23;;;;;;;;;;4798995;28;20186;-84
2021/06/20 04:26:34;;;;;;;5.37;1.00;;;18.20;1.00;;;;;;4799410;28;20562;-74
2021/06/20 04:29:07;;;;;;;8.47;1.47;;;;;;;;;;4799524;28;20259;-83
2021/06/20 04:31:50;;;;;;;6.53;1.20;;;;;;;;;;4800131;28;20186;-82
2021/06/20 04:34:33;;;;;;;17.37;3.00;;;;;;;;;;4799356;28;20186;-75
2021/06/20 04:36:56;;;;;;;5.93;1.03;;;;;;;;;;4800199;28;20259;-83
2021/06/20 04:39:18;;;;;;;4.77;0.83;;;;;;;;;;4797904;28;20232;-80
2021/06/20 04:41:42;;;;;;;5.67;0.97;;;18.80;99.90;;;;;;4783118;28;20285;-79
2021/06/20 04:44:07;;;;;;;10.30;1.80;;;18.60;1.00;;;;;;4782767;28;20267;-81
2021/06/20 04:46:33;;;;;;;4.20;0.80;;;18.90;1.00;;;;;;4784563;28;20543;-83
2021/06/20 04:48:57;;;;;;;8.63;1.47;;;19.00;1.00;;;;;;4784549;28;20249;-81
2021/06/20 04:51:20;;;;;;;4.50;0.80;;;19.50;65.10;;;;;;4783922;29;20242;-80
2021/06/20 04:53:43;;;;;;;4.50;0.80;;;19.60;1.00;;;;;;4785315;28;20197;-84
2021/06/20 04:56:05;;;;;;;9.30;1.53;;;;;;;;;;4784447;28;20806;-81
2021/06/20 04:58:29;;;;;;;4.27;0.73;;;19.10;1.00;;;;;;4806318;28;20208;-84
2021/06/20 05:00:52;;;;;;;3.93;0.70;;;;;;;;;;4800228;28;20240;-81
2021/06/20 05:03:15;;;;;;;9.13;1.47;;;;;;;;;;4803472;28;20728;-82
2021/06/20 05:05:38;;;;;;;4.13;0.70;;;;;;;;;;4802763;28;20209;-80
2021/06/20 05:08:01;;;;;;;9.77;1.53;;;;;;;;;;4803278;28;20188;-80
2021/06/20 05:10:24;;;;;;;10.70;1.80;;;20.40;1.00;;;;;;4801752;28;20228;-82
2021/06/20 05:12:47;;;;;;;5.20;0.90;;;19.80;99.90;;;;;;4802171;28;20201;-80
2021/06/20 05:15:12;;;;;;;10.37;1.67;;;20.00;99.90;;;;;;4802744;28;20682;-83
2021/06/20 05:17:35;;;;;;;5.37;0.93;;;19.60;1.00;;;;;;4803727;28;20188;-81
2021/06/20 05:19:57;;;;;;;4.17;0.73;;;20.50;1.00;;;;;;4803234;28;20217;-78
2021/06/20 05:22:20;;;;;;;3.20;0.50;;;19.80;1.00;;;;;;4817321;28;20272;-78
2021/06/20 05:24:43;;;;;;;9.23;1.57;;;;;;;;;;4801276;28;20238;-78
2021/06/20 05:27:06;;;;;;;10.03;1.67;;;20.50;99.90;;;;;;4801876;28;20253;-81
2021/06/20 05:29:29;;;;;;;5.63;0.90;;;21.00;99.90;;;;;;4803374;28;20182;-78
2021/06/20 05:31:53;;;;;;;11.00;1.87;;;20.80;99.90;;;;;;4802776;28;20197;-80
2021/06/20 05:34:16;;;;;;;13.63;2.10;;;20.80;1.00;;;;;;4802408;28;20194;-80
2021/06/20 05:36:38;;;;;;;3.37;0.67;;;20.20;1.00;;;;;;4800928;28;20274;-82
2021/06/20 05:39:01;;;;;;;10.50;1.67;;;20.00;1.00;;;;;;4802815;28;20184;-78
2021/06/20 05:41:24;;;;;;;5.63;0.97;;;20.50;1.00;;;;;;4802881;28;20231;-78
2021/06/20 05:43:47;;;;;;;5.57;1.00;;;;;;;;;;4800333;28;20605;-74
2021/06/20 05:46:10;;;;;;;11.10;1.77;;;20.50;1.00;;;;;;4801924;28;20211;-82
2021/06/20 05:48:34;;;;;;;5.53;0.97;;;20.80;1.00;;;;;;4802919;28;20708;-72
2021/06/20 05:50:57;;;;;;;3.63;0.67;;;;;;;;;;4802614;28;20629;-73
2021/06/20 05:53:19;;;;;;;6.07;1.03;;;21.10;1.00;;;;;;4801277;28;20250;-80
2021/06/20 05:55:42;;;;;;;5.27;0.93;;;21.40;1.00;;;;;;4800329;28;20238;-82
2021/06/20 05:58:04;;;;;;;6.93;1.17;;;21.40;99.90;;;;;;4802499;28;20243;-83
2021/06/20 06:00:27;;;;;;;36.73;5.77;;;;;;;;;;4799847;28;20195;-75
2021/06/20 06:02:50;;;;;;;5.50;0.93;;;21.30;99.90;;;;;;4801285;28;20204;-83
2021/06/20 06:05:15;;;;;;;8.73;1.47;;;21.80;1.00;;;;;;4799391;28;20294;-81
2021/06/20 06:07:38;;;;;;;3.60;0.70;;;;;;;;;;4801199;28;20246;-81
2021/06/20 06:10:01;;;;;;;10.00;1.60;;;;;;;;;;4802378;28;20235;-83
2021/06/20 06:12:24;;;;;;;5.60;0.97;;;;;;;;;;4802457;28;20184;-82
2021/06/20 06:14:46;;;;;;;6.67;1.10;;;22.20;27.80;;;;;;4801572;28;20200;-80
2021/06/20 06:17:09;;;;;;;7.70;1.27;;;21.90;99.90;;;;;;4800053;28;20212;-83
2021/06/20 06:19:32;;;;;;;5.70;1.00;;;;;;;;;;4802353;28;20243;-80
2021/06/20 06:21:56;;;;;;;7.03;1.10;;;22.10;99.90;;;;;;4802106;28;20308;-82
2021/06/20 06:24:19;;;;;;;4.10;0.73;;;22.10;99.90;;;;;;4802424;28;20240;-76
2021/06/20 06:26:42;;;;;;;8.77;1.43;;;;;;;;;;4800592;28;20552;-84
2021/06/20 06:29:05;;;;;;;7.73;1.23;;;22.60;1.00;;;;;;4800775;28;20236;-81
2021/06/20 06:31:27;;;;;;;5.17;0.90;;;;;;;;;;4802010;28;20211;-83
2021/06/20 06:33:50;;;;;;;5.90;1.00;;;22.90;1.00;;;;;;4800913;28;20649;-81
2021/06/20 06:36:13;;;;;;;10.30;1.70;;;;;;;;;;4799782;28;20618;-77
2021/06/20 06:38:37;;;;;;;5.23;0.90;;;22.80;1.00;;;;;;4801001;28;20240;-81
2021/06/20 06:41:00;;;;;;;7.93;1.30;;;;;;;;;;4801575;28;20281;-83
2021/06/20 06:43:23;;;;;;;6.43;1.07;;;;;;;;;;4801839;28;20640;-81
2021/06/20 06:45:45;;;;;;;6.57;1.07;;;22.50;99.90;;;;;;4801073;28;20218;-84
2021/06/20 06:48:08;;;;;;;15.63;2.47;;;23.00;1.00;;;;;;4799151;28;20245;-80
2021/06/20 06:50:31;;;;;;;5.50;1.00;;;22.40;99.90;;;;;;4800380;28;20203;-84
2021/06/20 06:52:55;;;;;;;3.93;0.70;;;23.50;99.90;;;;;;4800609;28;20262;-83
2021/06/20 06:55:19;;;;;;;4.30;0.77;;;22.90;1.00;;;;;;4799625;28;20790;-77
2021/06/20 06:57:42;;;;;;;7.03;1.10;;;23.70;99.90;;;;;;4801719;28;20667;-82
2021/06/20 07:00:07;;;;;;;12.53;2.07;;;23.30;99.90;;;;;;4799266;28;20201;-84
2021/06/20 07:02:31;;;;;;;6.73;1.20;;;;;;;;;;4798643;28;20188;-80
2021/06/20 07:04:54;;;;;;;5.07;0.80;;;;;;;;;;4800868;28;20218;-83
2021/06/20 07:07:16;;;;;;;2.90;0.50;;;;;;;;;;4789073;28;20549;-77
2021/06/20 07:09:39;;;;;;;8.40;1.47;;;;;;;;;;4782170;28;20181;-81
2021/06/20 07:12:04;;;;;;;12.13;1.97;;;24.30;1.00;;;;;;4782335;28;20192;-81
2021/06/20 07:14:27;;;;;;;13.73;2.13;;;;;;;;;;4782187;28;20324;-80
2021/06/20 07:16:52;;;;;;;5.37;0.90;;;25.20;1.00;;;;;;4781529;29;20262;-83
2021/06/20 07:19:15;;;;;;;11.53;1.77;;;;;;;;;;4781624;28;20277;-83
2021/06/20 07:21:40;;;;;;;4.63;0.77;;;25.90;99.90;;;;;;4780436;29;20200;-79
2021/06/20 07:24:04;;;;;;;11.93;1.80;;;26.10;29.80;;;;;;4782319;28;20217;-78
2021/06/20 07:26:26;;;;;;;4.37;0.80;;;27.20;7.50;;;;;;4781722;28;20288;-84
2021/06/20 07:28:50;;;;;;;4.50;0.80;;;27.40;99.90;;;;;;4782504;28;20191;-79
2021/06/20 07:31:13;;;;;;;17.40;2.70;;;;;;;;;;4764641;29;20203;-82
2021/06/20 07:33:36;;;;;;;5.10;0.90;;;;;;;;;;4782002;28;20191;-83
2021/06/20 07:35:59;;;;;;;7.50;1.17;;;;;;;;;;4792781;28;20659;-78
2021/06/20 07:38:22;;;;;;;5.80;1.00;;;;;;;;;;4800801;28;20188;-82
2021/06/20 07:40:44;;;;;;;5.20;0.90;;;;;;;;;;4800823;28;20689;-82
2021/06/20 07:43:07;;;;;;;8.13;1.30;;;27.30;1.00;;;;;;4799657;28;20223;-83
2021/06/20 07:45:32;;;;;;;6.13;1.10;;;27.90;1.00;;;;;;4799870;28;20227;-81
2021/06/20 07:47:55;;;;;;;7.50;1.20;;;;;;;;;;4800777;28;20190;-82
2021/06/20 07:50:18;;;;;;;5.00;0.90;;;;;;;;;;4799497;28;20279;-74
2021/06/20 07:52:41;;;;;;;12.47;2.00;;;;;;;;;;4799041;28;20303;-79
2021/06/20 07:55:05;;;;;;;10.70;1.63;;;28.10;99.90;;;;;;4799160;28;20621;-81
2021/06/20 07:57:28;;;;;;;5.63;0.97;;;;;;;;;;4799644;28;20204;-78
2021/06/20 07:59:50;;;;;;;5.33;0.93;;;27.80;1.00;;;;;;4800525;28;20191;-80
2021/06/20 08:02:14;;;;;;;12.47;1.90;;;27.40;1.00;;;;;;4797239;28;20201;-80
2021/06/20 08:04:38;;;;;;;25.10;3.77;;;;;;;;;;4798673;28;20200;-80
2021/06/20 08:07:01;;;;;;;16.30;2.50;;;27.30;1.00;;;;;;4782386;28;20228;-81
2021/06/20 08:09:23;;;;;;;4.87;0.80;;;;;;;;;;4800225;28;20594;-79
2021/06/20 08:11:47;;;;;;;8.63;1.40;;;;;;;;;;4800401;28;20184;-82
2021/06/20 08:14:09;;;;;;;12.07;1.87;;;;;;;;;;4798752;28;20200;-78
2021/06/20 08:16:33;;;;;;;6.30;1.00;;;27.00;1.00;;;;;;4798953;28;20530;-79
2021/06/20 08:18:57;;;;;;;5.67;0.93;;;26.70;99.90;;;;;;4798675;28;20200;-82
2021/06/20 08:21:20;;;;;;;4.03;0.67;;;;;;;;;;4800234;28;20689;-82
2021/06/20 08:23:42;;;;;;;9.37;1.50;;;;;;;;;;4798782;28;20583;-82
2021/06/20 08:26:05;;;;;;;10.43;1.63;;;;;;;;;;4797003;28;20218;-82
2021/06/20 08:28:28;;;;;;;8.37;1.37;;;;;;;;;;4799796;28;20197;-82
2021/06/20 08:30:51;;;;;;;5.87;1.00;;;;;;;;;;4799882;28;20244;-83
2021/06/20 08:33:13;;;;;;;10.20;1.73;;;;;;;;;;4799645;28;20215;-83
2021/06/20 08:35:37;;;;;;;6.40;1.03;;;27.60;99.90;;;;;;4797912;28;20205;-83
2021/06/20 08:38:00;;;;;;;7.13;1.07;;;;;;;;;;4798704;28;20214;-79
2021/06/20 08:40:23;;;;;;;7.87;1.20;;;;;;;;;;4799691;28;20246;-80
2021/06/20 08:42:45;;;;;;;7.33;1.13;;;27.50;1.00;;;;;;4799847;28;20229;-80
2021/06/20 08:45:09;;;;;;;12.80;1.97;;;27.80;1.00;;;;;;4797571;28;20199;-77
2021/06/20 08:47:32;;;;;;;10.93;1.67;;;;;;;;;;4788936;28;20234;-80
2021/06/20 08:49:55;;;;;;;6.23;1.00;;;;;;;;;;4781231;28;20185;-82
2021/06/20 08:52:19;;;;;;;5.37;0.93;;;28.40;99.90;;;;;;4781135;28;20984;-78
2021/06/20 08:55:00;;;;;;;21.03;3.10;;;;;;;;;;4780402;28;20196;-80
2021/06/20 08:57:29;;;;;;;6.10;0.90;;;28.80;99.90;;;;;;4781341;28;20176;-79
2021/06/20 08:59:51;;;;;;;7.23;1.00;;;;;;;;;;4796812;28;20192;-82
2021/06/20 09:02:14;;;;;;;16.30;2.10;;;;;;;;;;4797851;28;20649;-78
2021/06/20 09:04:38;;;;;;;26.33;3.50;;;;;;;;;;4799009;28;20225;-79
2021/06/20 09:07:02;;;;;;;9.83;1.27;;;30.10;99.90;;;;;;4798243;28;20229;-83
2021/06/20 09:09:32;;;;;;;7.40;1.00;;;30.80;51.90;;;;;;4798859;28;20689;-81
2021/06/20 09:12:06;;;;;;;10.73;1.43;;;30.90;99.90;;;;;;4799600;28;20549;-82
2021/06/20 09:14:29;;;;;;;31.37;3.83;;;;;;;;;;4798885;28;20231;-78
2021/06/20 09:16:54;;;;;;;13.80;1.80;;;32.00;99.90;;;;;;4814435;28;20249;-78
2021/06/20 09:19:17;;;;;;;32.08;4.25;;;32.70;99.90;;;;;;4814216;28;20659;-74
2021/06/20 09:21:39;;;;;;;11.15;1.50;;;33.00;1.00;;;;;;4797567;28;20263;-80
2021/06/20 09:24:04;;;;;;;19.98;2.60;;;33.90;20.20;;;;;;4797866;28;20187;-81
2021/06/20 09:26:52;;;;;;;11.05;1.55;;;35.10;1.00;;;;;;4797563;28;20216;-81
2021/06/20 09:29:29;;;;;;;22.92;2.80;;;36.70;99.90;;;;;;4799329;28;20227;-79
2021/06/20 09:31:53;;;;;;;11.70;1.60;;;38.90;99.90;;;;;;4816186;28;20262;-81
2021/06/20 09:34:16;;;;;;;22.05;2.88;;;40.60;1.00;;;;;;4802926;28;20639;-78
2021/06/20 09:36:39;;;;;;;8.32;1.13;;;;;;;;;;4801702;28;20297;-80
2021/06/20 09:39:02;;;;;;;17.13;2.33;;;;;;;;;;4801061;28;20192;-76
2021/06/20 09:41:26;;;;;;;25.58;3.40;;;;;;;;;;4801199;28;20255;-80
2021/06/20 09:43:54;;;;;;;15.02;2.00;;;46.20;99.90;;;;;;4802003;28;20192;-78
2021/06/20 09:46:16;;;;;;;15.93;2.20;;;47.30;99.90;;;;;;4799799;28;20724;-79
2021/06/20 09:48:40;;;;;;;11.65;1.65;;;48.20;99.90;;;;;;4785101;28;20295;-77
2021/06/20 09:51:14;;;;;;;22.75;3.00;;;48.80;99.90;;;;;;4799736;28;20673;-73
2021/06/20 09:53:39;;;;;;;19.55;3.15;;;49.40;99.90;;;;;;4799614;28;20198;-76
2021/06/20 09:56:19;;;;;;;21.02;3.95;;;49.90;1.00;;;;;;4800910;28;20187;-79
2021/06/20 09:58:44;;;;;;;31.73;28.77;;;49.80;99.90;;;;;;4801889;28;20195;-79
2021/06/20 10:01:11;;;;;;;32.97;16.20;;;50.50;1.00;;;;;;4799700;28;20238;-78
2021/06/20 10:03:34;;;;;;;51.00;46.85;;;;;;;;;;4800411;28;20215;-78
2021/06/20 10:05:57;;;;;;;51.17;46.78;;;51.60;99.90;;;;;;4800915;28;20238;-75
2021/06/20 10:08:20;;;;;;;37.58;34.55;;;;;;;;;;4800360;28;20199;-78
2021/06/20 10:10:42;;;;;;;28.10;25.67;;;;;;;;;;4801925;28;20187;-80
2021/06/20 10:13:06;;;;;;;63.08;57.33;;;;;;;;;;4801284;28;20230;-78
2021/06/20 10:15:30;;;;;;;51.00;47.17;;;52.80;1.00;;;;;;4798537;28;20199;-76
2021/06/20 10:17:58;;;;;;;27.30;24.30;;;53.00;1.00;;;;;;4799694;28;20255;-77
2021/06/20 10:20:22;;;;;;;28.52;26.02;;;53.40;99.90;;;;;;4801458;28;20227;-77
2021/06/20 10:22:46;;;;;;;34.08;30.75;;;53.60;99.90;;;;;;4800129;28;20642;-76
2021/06/20 10:25:11;;;;;;;39.80;29.67;;;53.50;1.00;;;;;;4798202;28;20215;-77
2021/06/20 10:27:34;;;;;;;25.48;22.90;;;54.00;99.90;;;;;;4783655;28;20251;-78
2021/06/20 10:29:59;;;;;;;24.73;22.38;;;54.00;99.90;;;;;;4800762;28;21033;-74
2021/06/20 10:32:23;;;;;;;22.70;19.45;;;53.60;99.90;;;;;;4801181;28;20856;-77
2021/06/20 10:34:57;;;;;;;31.88;21.92;;;53.40;1.00;;;;;;4799346;28;20842;-80
2021/06/20 10:37:22;;;;;;;18.38;12.40;;;54.00;99.90;;;;;;4800493;28;20630;-76
2021/06/20 10:39:48;;;;;;;20.40;15.70;;;53.50;99.90;;;;;;4799881;28;20250;-79
2021/06/20 10:42:12;;;;;;;34.30;18.15;;;54.60;99.90;;;;;;4799062;28;20240;-75
2021/06/20 10:44:46;;;;;;;49.88;17.63;;;55.10;99.90;;;;;;4798721;28;20693;-79
2021/06/20 10:47:09;;;;;;;34.40;21.95;;;55.00;99.90;;;;;;4799937;28;20250;-79
2021/06/20 10:49:32;;;;;;;29.27;26.52;;;;;;;;;;4799751;28;20223;-76
2021/06/20 10:51:56;;;;;;;30.55;27.70;;;56.00;99.90;;;;;;4795479;28;20249;-76
2021/06/20 10:54:26;;;;;;;31.23;28.35;;;55.20;1.00;;;;;;4780981;29;20212;-79
2021/06/20 10:56:57;;;;;;;31.65;27.60;;;56.60;99.90;;;;;;4781664;28;20196;-77
2021/06/20 10:59:23;;;;;;;21.48;19.42;;;56.40;99.90;;;;;;4794206;28;20195;-74
2021/06/20 11:01:46;;;;;;;24.70;19.40;;;;;;;;;;4798945;28;20188;-77
2021/06/20 11:04:09;;;;;;;51.63;25.15;;;;;;;;;;4798840;28;20207;-78
2021/06/20 11:06:32;;;;;;;29.98;27.10;;;;;;;;;;4800121;28;20184;-75
2021/06/20 11:08:58;;;;;;;24.13;21.27;;;57.40;99.90;;;;;;4814654;28;20209;-78
2021/06/20 11:11:23;;;;;;;27.10;24.58;;;58.00;99.90;;;;;;4799332;28;20195;-77
2021/06/20 11:13:48;;;;;;;26.27;20.55;;;57.50;1.00;;;;;;4815348;28;20206;-78
2021/06/20 11:16:13;;;;;;;32.90;16.88;;;58.10;1.00;;;;;;4799550;28;20183;-76
2021/06/20 11:18:36;;;;;;;38.20;26.42;;;;;;;;;;4798070;28;20219;-77
2021/06/20 11:21:00;;;;;;;17.48;15.70;;;;;;;;;;4798766;28;20399;-74
2021/06/20 11:23:22;;;;;;;23.23;15.02;;;57.20;1.00;;;;;;4800428;28;20783;-78
2021/06/20 11:25:53;;;;;;;19.40;17.17;;;57.80;1.00;;;;;;4798296;28;20234;-80
2021/06/20 11:28:19;;;;;;;30.98;17.77;;;57.90;99.90;;;;;;4798840;28;20207;-77
2021/06/20 11:30:42;;;;;;;23.52;10.65;;;58.00;1.00;;;;;;4798595;28;20187;-79
2021/06/20 11:33:05;;;;;;;35.63;23.92;;;;;;;;;;4800058;28;20187;-76
2021/06/20 11:35:28;;;;;;;33.10;30.13;;;57.50;99.90;;;;;;4799117;28;20250;-78
2021/06/20 11:37:53;;;;;;;25.23;21.35;;;57.90;1.00;;;;;;4771753;28;20270;-73
2021/06/20 11:40:19;;;;;;;53.20;35.05;;;58.00;99.90;;;;;;4780563;29;20690;-76
2021/06/20 11:42:46;;;;;;;34.33;31.30;;;58.20;99.90;;;;;;4781027;28;20227;-79
2021/06/20 11:45:11;;;;;;;55.63;50.17;;;58.20;1.00;;;;;;4785319;28;20193;-79
2021/06/20 11:47:36;;;;;;;86.30;80.95;;;58.60;1.00;;;;;;4800719;28;20585;-80
2021/06/20 11:50:10;;;;;;;194.18;183.68;;;58.30;99.90;;;;;;4800757;28;20222;-80
2021/06/20 11:52:32;;;;;;;395.23;375.02;;;58.70;99.90;;;;;;4798804;28;20204;-77
2021/06/20 11:55:05;;;;;;;573.60;532.28;;;59.10;99.90;;;;;;4799274;28;20188;-81
2021/06/20 11:57:28;;;;;;;574.35;529.85;;;59.20;99.90;;;;;;4799445;28;20282;-79
2021/06/20 11:59:52;;;;;;;586.20;537.22;;;59.00;99.90;;;;;;4800549;28;20195;-78
2021/06/20 12:02:15;;;;;;;581.47;531.78;;;59.30;99.90;;;;;;4797514;28;20191;-80
2021/06/20 12:04:42;;;;;;;571.72;527.33;;;59.40;99.90;;;;;;4799696;28;20246;-79
2021/06/20 12:07:08;;;;;;;524.60;490.27;;;60.20;1.00;;;;;;4800265;28;20238;-78
2021/06/20 12:09:31;;;;;;;504.17;473.23;;;59.90;99.90;;;;;;4800306;28;20191;-82
2021/06/20 12:11:59;;;;;;;498.92;468.70;;;59.90;99.90;;;;;;4799339;28;20195;-79
2021/06/20 12:14:24;;;;;;;431.67;408.08;;;59.80;99.90;;;;;;4799311;28;20191;-77
2021/06/20 12:16:49;;;;;;;370.95;351.05;;;60.10;1.00;;;;;;4783059;28;20204;-80
2021/06/20 12:19:14;;;;;;;437.95;412.92;;;59.60;1.00;;;;;;4798744;28;20330;-79
2021/06/20 12:21:36;;;;;;;421.48;398.33;;;59.50;99.90;;;;;;4800236;28;20211;-80
2021/06/20 12:24:00;;;;;;;501.40;470.50;;;59.90;99.90;;;;;;4799356;28;20238;-77
2021/06/20 12:26:27;;;;;;;477.40;449.48;;;59.80;1.00;;;;;;4798171;28;20211;-81
2021/06/20 12:28:51;;;;;;;458.45;432.10;;;59.90;1.00;;;;;;4800182;28;20195;-76
2021/06/20 12:31:14;;;;;;;417.67;394.02;;;60.50;1.00;;;;;;4799799;28;20188;-78
2021/06/20 12:33:38;;;;;;;356.13;337.92;;;60.50;1.00;;;;;;4798759;28;20195;-80
2021/06/20 12:36:03;;;;;;;340.15;323.05;;;60.10;99.90;;;;;;4798180;28;20242;-79
2021/06/20 12:38:29;;;;;;;311.25;294.80;;;59.80;99.90;;;;;;4799844;28;20223;-79
2021/06/20 12:40:52;;;;;;;294.27;279.40;;;59.80;99.90;;;;;;4798717;28;20363;-80
2021/06/20 12:43:17;;;;;;;289.70;273.52;;;59.80;99.90;;;;;;4799700;28;20226;-80
2021/06/20 12:45:39;;;;;;;292.00;276.50;;;59.30;99.90;;;;;;4780203;28;20203;-79
2021/06/20 12:48:14;;;;;;;237.20;225.20;;;59.10;1.00;;;;;;4799963;28;20191;-76
2021/06/20 12:50:40;;;;;;;259.50;246.35;;;58.80;99.90;;;;;;4799830;28;20743;-80
2021/06/20 12:53:04;;;;;;;221.85;209.55;;;58.60;1.00;;;;;;4799481;28;20183;-73
2021/06/20 12:55:30;;;;;;;238.98;227.00;;;59.20;1.00;;;;;;4799032;28;20179;-82
2021/06/20 12:57:55;;;;;;;221.98;210.10;;;58.90;1.00;;;;;;4799253;28;20195;-79
2021/06/20 13:00:22;;;;;;;223.13;210.43;;;59.40;99.90;;;;;;4799675;28;20250;-78
2021/06/20 13:02:51;;;;;;;201.60;191.02;;;59.60;1.00;;;;;;4797700;28;20199;-79